Time;durP1;ratioP1;P1;durP2;ratioP2;P2;SDS_P1;SDS_P2;PMS_P1;PMS_P2;Temp;Humidity;BMP_temperature;BMP_pressure;BME280_temperature;BME280_humidity;BME280_pressure;Samples;Min_cycle;Max_cycle;Signal;HPM_P1;HPM_P2
2022/07/06 00:03:00;;;;;;;;;;;;;;;17.65;100.00;100741.84;10543415;28;19924;-66
2022/07/06 00:08:03;;;;;;;;;;;;;;;17.71;100.00;100746.88;10543405;28;19924;-67
2022/07/06 00:13:06;;;;;;;;;;;;;;;17.82;100.00;100747.41;10543518;28;19924;-63
2022/07/06 00:18:11;;;;;;;;;;;;;;;17.72;100.00;100744.25;10543255;28;19988;-66
2022/07/06 00:23:14;;;;;;;;;;;;;;;17.72;100.00;100739.00;10542956;28;19925;-65
2022/07/06 00:28:17;;;;;;;;;;;;;;;17.68;100.00;100733.88;10542907;28;19953;-65
2022/07/06 00:33:22;;;;;;;;;;;;;;;17.69;100.00;100732.97;10542591;28;19925;-67
2022/07/06 00:38:25;;;;;;;;;;;;;;;17.70;100.00;100734.69;10542838;28;19989;-66
2022/07/06 00:43:28;;;;;;;;;;;;;;;17.68;100.00;100724.22;10542853;28;19935;-64
2022/07/06 00:48:32;;;;;;;;;;;;;;;17.64;100.00;100727.00;10542552;28;19939;-63
2022/07/06 00:53:35;;;;;;;;;;;;;;;17.57;100.00;100710.59;10542548;28;19931;-67
2022/07/06 00:58:38;;;;;;;;;;;;;;;17.58;100.00;100720.19;10542462;28;19989;-64
2022/07/06 01:03:43;;;;;;;;;;;;;;;17.57;100.00;100712.38;10542434;28;19931;-64
2022/07/06 01:08:46;;;;;;;;;;;;;;;17.60;100.00;100710.47;10542377;28;19989;-64
2022/07/06 01:13:51;;;;;;;;;;;;;;;17.50;100.00;100695.94;10541990;28;19973;-66
2022/07/06 01:18:55;;;;;;;;;;;;;;;17.41;100.00;100692.75;10541857;28;19924;-65
2022/07/06 01:23:59;;;;;;;;;;;;;;;17.36;100.00;100684.16;10542104;28;19924;-66
2022/07/06 01:29:02;;;;;;;;;;;;;;;17.36;100.00;100687.63;10541878;28;20030;-65
2022/07/06 01:34:05;;;;;;;;;;;;;;;17.39;100.00;100686.69;10541588;28;19934;-67
2022/07/06 01:39:10;;;;;;;;;;;;;;;17.29;100.00;100686.16;10541430;28;19924;-63
2022/07/06 01:44:13;;;;;;;;;;;;;;;17.29;100.00;100686.97;10543668;28;19924;-64
2022/07/06 01:49:16;;;;;;;;;;;;;;;17.24;100.00;100691.53;10548982;28;20330;-65
2022/07/06 01:54:21;;;;;;;;;;;;;;;17.26;100.00;100694.09;10548775;28;19924;-66
2022/07/06 01:59:24;;;;;;;;;;;;;;;17.28;100.00;100703.66;10548263;28;19934;-64
2022/07/06 02:04:27;;;;;;;;;;;;;;;17.25;100.00;100698.50;10548340;28;20006;-66
2022/07/06 02:09:31;;;;;;;;;;;;;;;17.22;100.00;100695.13;10548481;28;19924;-65
2022/07/06 02:14:34;;;;;;;;;;;;;;;17.28;100.00;100687.91;10547794;28;19924;-66
2022/07/06 02:19:37;;;;;;;;;;;;;;;17.23;100.00;100692.44;10547293;28;19924;-64
2022/07/06 02:24:41;;;;;;;;;;;;;;;17.20;100.00;100691.69;10547403;28;19924;-66
2022/07/06 02:29:44;;;;;;;;;;;;;;;17.23;100.00;100689.81;10547163;28;19924;-65
2022/07/06 02:34:47;;;;;;;;;;;;;;;17.13;100.00;100693.63;10547158;28;20233;-66
2022/07/06 02:39:52;;;;;;;;;;;;;;;17.12;100.00;100694.53;10546932;28;19934;-65
2022/07/06 02:44:55;;;;;;;;;;;;;;;17.13;100.00;100695.41;10546591;28;19934;-65
2022/07/06 02:49:57;;;;;;;;;;;;;;;17.05;100.00;100692.16;10546487;28;20252;-63
2022/07/06 02:55:02;;;;;;;;;;;;;;;17.08;100.00;100692.06;10546157;28;19934;-64
2022/07/06 03:00:06;;;;;;;;;;;;;;;17.00;100.00;100694.91;10546047;28;20249;-64
2022/07/06 03:05:09;;;;;;;;;;;;;;;17.01;100.00;100690.53;10545679;28;19924;-64
2022/07/06 03:10:13;;;;;;;;;;;;;;;17.09;100.00;100680.66;10545513;28;19928;-68
2022/07/06 03:15:16;;;;;;;;;;;;;;;17.07;100.00;100690.31;10545593;28;19928;-68
2022/07/06 03:20:19;;;;;;;;;;;;;;;17.04;100.00;100675.56;10545284;28;20371;-66
2022/07/06 03:25:24;;;;;;;;;;;;;;;17.09;100.00;100672.78;10545127;28;19924;-64
2022/07/06 03:30:27;;;;;;;;;;;;;;;17.06;100.00;100668.50;10544956;28;20245;-64
2022/07/06 03:35:30;;;;;;;;;;;;;;;17.03;100.00;100667.75;10544644;28;19924;-64
2022/07/06 03:40:34;;;;;;;;;;;;;;;16.98;100.00;100662.63;10544266;28;20253;-68
2022/07/06 03:45:37;;;;;;;;;;;;;;;17.03;100.00;100662.50;10544334;28;20333;-69
2022/07/06 03:50:40;;;;;;;;;;;;;;;17.02;100.00;100658.16;10544215;28;19946;-66
2022/07/06 03:56:27;;;;;;;;;;;;;;;17.06;100.00;100646.66;10543893;28;19924;-64
2022/07/06 04:01:07;;;;;;;;;;;;;;;17.06;100.00;100646.66;10543722;28;20355;-67
2022/07/06 04:06:10;;;;;;;;;;;;;;;17.14;100.00;100647.25;10543183;28;19924;-62
2022/07/06 04:11:15;;;;;;;;;;;;;;;17.24;100.00;100653.91;10543335;28;19947;-66
2022/07/06 04:16:18;;;;;;;;;;;;;;;17.22;100.00;100658.38;10543221;28;19924;-65
2022/07/06 04:21:21;;;;;;;;;;;;;;;17.18;100.00;100643.66;10542929;28;19992;-66
2022/07/06 04:26:25;;;;;;;;;;;;;;;17.09;100.00;100636.06;10543089;28;20329;-66
2022/07/06 04:31:28;;;;;;;;;;;;;;;17.09;100.00;100634.31;10543202;28;19924;-65
2022/07/06 04:36:31;;;;;;;;;;;;;;;17.03;100.00;100631.03;10542998;28;19932;-65
2022/07/06 04:41:35;;;;;;;;;;;;;;;17.23;100.00;100639.09;10542614;28;19924;-66
2022/07/06 04:46:38;;;;;;;;;;;;;;;17.17;100.00;100632.28;10542801;28;19924;-66
2022/07/06 04:51:41;;;;;;;;;;;;;;;17.27;100.00;100635.47;10542636;28;19924;-67
2022/07/06 04:56:46;;;;;;;;;;;;;;;17.27;100.00;100638.94;10542615;28;19924;-65
2022/07/06 05:01:49;;;;;;;;;;;;;;;17.22;100.00;100638.22;10542337;28;19924;-67
2022/07/06 05:06:52;;;;;;;;;;;;;;;17.28;100.00;100638.06;10542367;28;19957;-66
2022/07/06 05:11:56;;;;;;;;;;;;;;;17.28;100.00;100631.94;10542053;28;19935;-64
2022/07/06 05:16:59;;;;;;;;;;;;;;;17.28;100.00;100634.56;10541973;28;20019;-65
2022/07/06 05:22:02;;;;;;;;;;;;;;;17.25;100.00;100632.91;10548289;28;19928;-64
2022/07/06 05:27:07;;;;;;;;;;;;;;;17.28;100.00;100634.56;10549700;28;19924;-65
2022/07/06 05:32:10;;;;;;;;;;;;;;;17.43;100.00;100634.03;10549465;28;19946;-65
2022/07/06 05:37:13;;;;;;;;;;;;;;;17.52;100.00;100632.91;10549147;28;19928;-65
2022/07/06 05:42:18;;;;;;;;;;;;;;;17.54;100.00;100641.59;10549158;28;19924;-63
2022/07/06 05:52:45;;;;;;;;;;;;;;;17.74;100.00;100650.50;10549044;28;20311;-71
2022/07/06 05:57:50;;;;;;;;;;;;;;;17.60;100.00;100644.84;10548632;28;20405;-65
2022/07/06 06:02:54;;;;;;;;;;;;;;;17.40;100.00;100655.16;10548454;28;19924;-66
2022/07/06 06:07:57;;;;;;;;;;;;;;;17.39;100.00;100653.44;10548108;28;20248;-66
2022/07/06 06:13:01;;;;;;;;;;;;;;;17.57;100.00;100649.38;10547912;28;19924;-66
2022/07/06 06:18:04;;;;;;;;;;;;;;;17.58;100.00;100654.56;10547543;28;19924;-69
2022/07/06 06:23:07;;;;;;;;;;;;;;;17.70;100.00;100655.91;10547371;28;19924;-64
2022/07/06 06:28:12;;;;;;;;;;;;;;;17.65;100.00;100663.97;10547307;28;19942;-63
2022/07/06 06:33:17;;;;;;;;;;;;;;;17.66;100.00;100662.16;10546543;28;20362;-64
2022/07/06 06:38:21;;;;;;;;;;;;;;;17.65;100.00;100658.72;10546937;28;20062;-66
2022/07/06 06:43:26;;;;;;;;;;;;;;;17.73;100.00;100654.03;10546669;28;19924;-67
2022/07/06 06:48:31;;;;;;;;;;;;;;;17.85;100.00;100651.00;10546574;28;19924;-72
2022/07/06 06:53:34;;;;;;;;;;;;;;;17.84;100.00;100654.53;10546209;28;19924;-66
2022/07/06 06:58:43;;;;;;;;;;;;;;;17.90;100.00;100648.19;10546210;28;20002;-65
2022/07/06 07:04:08;;;;;;;;;;;;;;;17.97;100.00;100650.56;10545662;28;20014;-68
2022/07/06 07:09:11;;;;;;;;;;;;;;;17.98;100.00;100662.78;10545680;28;19924;-66
2022/07/06 07:14:16;;;;;;;;;;;;;;;18.05;100.00;100659.00;10545599;28;19928;-63
2022/07/06 07:19:18;;;;;;;;;;;;;;;18.22;100.00;100654.00;10545224;28;20345;-68
2022/07/06 07:24:21;;;;;;;;;;;;;;;18.40;100.00;100652.50;10545004;28;19924;-70
2022/07/06 07:29:26;;;;;;;;;;;;;;;18.50;100.00;100647.78;10544984;28;19928;-67
2022/07/06 07:34:29;;;;;;;;;;;;;;;18.65;100.00;100650.69;10544705;28;20050;-68
2022/07/06 07:39:32;;;;;;;;;;;;;;;18.61;100.00;100643.81;10544561;28;19924;-64
2022/07/06 07:44:36;;;;;;;;;;;;;;;18.53;100.00;100648.53;10543330;28;19924;-68
2022/07/06 07:49:39;;;;;;;;;;;;;;;18.72;100.00;100656.56;10544107;28;19924;-64
2022/07/06 07:54:42;;;;;;;;;;;;;;;18.76;100.00;100663.41;10544047;28;20642;-63
2022/07/06 07:59:52;;;;;;;;;;;;;;;18.68;100.00;100658.44;10543898;28;19931;-67
2022/07/06 08:04:55;;;;;;;;;;;;;;;18.67;100.00;100663.78;10543499;28;19928;-68
2022/07/06 08:09:58;;;;;;;;;;;;;;;18.80;100.00;100660.59;10543445;28;20301;-65
2022/07/06 08:15:02;;;;;;;;;;;;;;;19.08;100.00;100655.97;10543304;28;19935;-68
2022/07/06 08:20:08;;;;;;;;;;;;;;;19.18;100.00;100656.44;10543022;28;20019;-65
2022/07/06 08:25:12;;;;;;;;;;;;;;;19.37;100.00;100657.44;10542912;28;20402;-68
2022/07/06 08:30:16;;;;;;;;;;;;;;;19.42;100.00;100642.31;10542842;28;19928;-64
2022/07/06 08:35:19;;;;;;;;;;;;;;;19.45;100.00;100645.69;10542969;28;19924;-70
2022/07/06 08:40:22;;;;;;;;;;;;;;;19.29;100.00;100638.47;10542765;28;20367;-69
2022/07/06 08:45:27;;;;;;;;;;;;;;;19.26;100.00;100642.06;10542624;28;19924;-66
2022/07/06 08:50:30;;;;;;;;;;;;;;;19.26;100.00;100643.81;10542709;28;19930;-68
2022/07/06 08:55:33;;;;;;;;;;;;;;;19.43;100.00;100644.88;10548470;28;20360;-64
2022/07/06 09:00:38;;;;;;;;;;;;;;;19.41;97.49;100648.50;10550974;28;20382;-64
2022/07/06 09:05:41;;;;;;;;;;;;;;;19.65;95.02;100647.47;10550525;28;19924;-68
2022/07/06 09:10:44;;;;;;;;;;;;;;;19.85;92.02;100649.25;10550837;28;19946;-66
2022/07/06 09:15:49;;;;;;;;;;;;;;;20.06;90.64;100638.63;10550136;28;19924;-67
2022/07/06 09:21:05;;;;;;;;;;;;;;;20.40;89.30;100640.63;10549841;28;19990;-70
2022/07/06 09:26:08;;;;;;;;;;;;;;;20.63;79.35;100636.03;10550179;28;19934;-66
2022/07/06 09:31:13;;;;;;;;;;;;;;;20.69;74.88;100634.88;10549375;28;19989;-63
2022/07/06 09:36:37;;;;;;;;;;;;;;;20.75;72.43;100623.16;10549584;28;20268;-65
2022/07/06 09:41:40;;;;;;;;;;;;;;;21.09;73.41;100625.94;10549105;28;19949;-62
2022/07/06 09:46:46;;;;;;;;;;;;;;;21.40;68.20;100631.38;10549144;28;19924;-68
2022/07/06 09:51:51;;;;;;;;;;;;;;;21.21;69.69;100627.97;10549083;28;19931;-70
2022/07/06 09:56:55;;;;;;;;;;;;;;;21.15;71.70;100633.53;10548628;28;19930;-66
2022/07/06 10:02:00;;;;;;;;;;;;;;;21.77;68.54;100634.78;10548193;28;20365;-69
2022/07/06 10:07:04;;;;;;;;;;;;;;;23.27;62.34;100618.56;10547504;28;19931;-68
2022/07/06 10:12:11;;;;;;;;;;;;;;;24.36;59.43;100613.69;10548041;28;19932;-66
2022/07/06 10:17:16;;;;;;;;;;;;;;;24.80;54.96;100611.72;10547968;28;20027;-65
2022/07/06 10:22:19;;;;;;;;;;;;;;;25.14;55.85;100607.75;10547568;28;19934;-66
2022/07/06 10:27:24;;;;;;;;;;;;;;;25.08;52.74;100610.78;10547448;28;20249;-65
2022/07/06 10:32:29;;;;;;;;;;;;;;;24.92;52.76;100616.25;10547311;28;19934;-64
2022/07/06 10:37:33;;;;;;;;;;;;;;;24.70;52.02;100613.28;10546953;28;19924;-65
2022/07/06 10:42:43;;;;;;;;;;;;;;;24.33;54.96;100619.19;10547079;28;20253;-65
2022/07/06 10:47:47;;;;;;;;;;;;;;;24.61;53.44;100607.69;10546378;28;19928;-69
2022/07/06 10:52:58;;;;;;;;;;;;;;;25.79;49.61;100622.78;10546391;28;19924;-68
2022/07/06 10:58:01;;;;;;;;;;;;;;;25.30;49.62;100623.53;10546102;28;20022;-64
2022/07/06 11:03:30;;;;;;;;;;;;;;;24.62;51.27;100628.81;10546043;28;19935;-66
2022/07/06 11:08:50;;;;;;;;;;;;;;;25.95;47.38;100619.94;10545692;28;19935;-71
2022/07/06 11:13:54;;;;;;;;;;;;;;;25.13;48.67;100626.44;10545559;28;20015;-65
2022/07/06 11:19:06;;;;;;;;;;;;;;;24.46;52.60;100629.88;10545087;28;19925;-65
2022/07/06 11:24:10;;;;;;;;;;;;;;;24.21;49.66;100625.25;10545311;28;19924;-64
2022/07/06 11:29:14;;;;;;;;;;;;;;;24.49;48.00;100625.22;10545198;28;20330;-66
2022/07/06 11:34:20;;;;;;;;;;;;;;;26.19;44.85;100603.16;10544739;28;19925;-66
2022/07/06 11:39:23;;;;;;;;;;;;;;;26.71;43.14;100608.28;10544466;28;20269;-64
2022/07/06 11:44:26;;;;;;;;;;;;;;;25.74;45.41;100608.97;10544239;28;19950;-64
2022/07/06 11:49:31;;;;;;;;;;;;;;;24.76;45.90;100618.22;10544279;28;19935;-67
2022/07/06 11:54:34;;;;;;;;;;;;;;;24.13;47.36;100614.25;10544164;28;20249;-66
2022/07/06 11:59:38;;;;;;;;;;;;;;;25.79;45.12;100606.84;10543552;28;19931;-63
2022/07/06 12:04:43;;;;;;;;;;;;;;;26.63;42.82;100610.59;10543672;28;19924;-69
2022/07/06 12:09:48;;;;;;;;;;;;;;;25.97;44.20;100620.69;10543559;28;20015;-65
2022/07/06 12:14:53;;;;;;;;;;;;;;;25.32;45.83;100610.97;10543495;28;19924;-67
2022/07/06 12:19:57;;;;;;;;;;;;;;;26.50;45.65;100611.59;10543013;28;19928;-64
2022/07/06 12:25:00;;;;;;;;;;;;;;;27.35;43.89;100608.88;10542924;28;20074;-65
2022/07/06 12:30:11;;;;;;;;;;;;;;;27.29;43.88;100607.50;10542505;28;20014;-64
2022/07/06 12:35:17;;;;;;;;;;;;;;;27.47;43.76;100606.13;10542840;28;19924;-64
2022/07/06 12:40:20;;;;;;;;;;;;;;;27.13;42.06;100596.25;10543019;28;19924;-66
2022/07/06 12:45:27;;;;;;;;;;;;;;;28.07;41.68;100608.59;10542265;28;20037;-65
2022/07/06 12:50:34;;;;;;;;;;;;;;;28.38;40.05;100607.88;10542642;28;19924;-67
2022/07/06 12:55:38;;;;;;;;;;;;;;;28.01;40.67;100606.41;10542638;28;19924;-65
2022/07/06 13:00:45;;;;;;;;;;;;;;;28.30;40.51;100599.63;10542614;28;20234;-71
2022/07/06 13:05:51;;;;;;;;;;;;;;;26.95;40.39;100611.81;10542680;28;19935;-63
2022/07/06 13:10:54;;;;;;;;;;;;;;;26.50;41.34;100603.59;10542139;28;19934;-65
2022/07/06 13:15:57;;;;;;;;;;;;;;;25.79;44.88;100616.63;10541987;28;19928;-65
2022/07/06 13:21:01;;;;;;;;;;;;;;;27.20;44.06;100616.16;10541981;28;19923;-66
2022/07/06 13:26:04;;;;;;;;;;;;;;;28.03;41.84;100620.47;10542021;28;20011;-66
2022/07/06 13:31:07;;;;;;;;;;;;;;;27.95;43.56;100621.09;10541448;28;19924;-64
2022/07/06 13:36:15;;;;;;;;;;;;;;;28.11;42.74;100616.22;10541667;28;20024;-65
2022/07/06 13:41:18;;;;;;;;;;;;;;;28.37;38.02;100603.50;10545108;28;20353;-67
2022/07/06 13:46:22;;;;;;;;;;;;;;;28.81;36.10;100603.47;10548950;28;19923;-65
2022/07/06 13:51:28;;;;;;;;;;;;;;;28.73;39.96;100603.25;10549086;28;19924;-68
2022/07/06 13:56:31;;;;;;;;;;;;;;;28.12;38.90;100612.59;10548625;28;20211;-66
2022/07/06 14:01:34;;;;;;;;;;;;;;;27.10;39.95;100608.00;10548434;28;19930;-67
2022/07/06 14:06:39;;;;;;;;;;;;;;;26.12;41.71;100614.31;10548341;28;20325;-68
2022/07/06 14:11:42;;;;;;;;;;;;;;;25.33;44.15;100618.00;10548425;28;20249;-70
2022/07/06 14:16:45;;;;;;;;;;;;;;;25.20;43.69;100620.59;10547848;28;19934;-71
2022/07/06 14:21:49;;;;;;;;;;;;;;;24.68;45.60;100624.91;10547426;28;20418;-67
2022/07/06 14:26:52;;;;;;;;;;;;;;;24.31;44.80;100622.88;10547321;28;19925;-65
2022/07/06 14:31:55;;;;;;;;;;;;;;;23.92;46.15;100627.00;10547215;28;19924;-66
2022/07/06 14:37:00;;;;;;;;;;;;;;;23.72;46.75;100631.78;10547082;28;19935;-64
2022/07/06 14:42:03;;;;;;;;;;;;;;;23.54;47.27;100632.91;10546709;28;19924;-65
2022/07/06 14:47:06;;;;;;;;;;;;;;;23.46;48.01;100635.13;10546639;28;19931;-65
2022/07/06 14:52:10;;;;;;;;;;;;;;;23.38;49.13;100634.72;10545982;28;19924;-64
2022/07/06 14:57:13;;;;;;;;;;;;;;;23.22;50.00;100626.78;10546209;28;20003;-63
2022/07/06 15:02:16;;;;;;;;;;;;;;;23.63;48.19;100624.38;10545755;28;19924;-67
2022/07/06 15:07:21;;;;;;;;;;;;;;;23.55;47.50;100616.03;10545685;28;19924;-66
2022/07/06 15:12:24;;;;;;;;;;;;;;;23.32;47.66;100617.38;10545558;28;19937;-67
2022/07/06 15:17:28;;;;;;;;;;;;;;;23.38;47.57;100625.00;10545424;28;19946;-69
2022/07/06 15:22:33;;;;;;;;;;;;;;;23.13;47.94;100623.78;10545155;28;19935;-66
2022/07/06 15:27:36;;;;;;;;;;;;;;;22.96;48.60;100624.75;10544979;28;19930;-66
2022/07/06 15:32:39;;;;;;;;;;;;;;;22.74;48.64;100630.41;10544848;28;20248;-65
2022/07/06 15:37:43;;;;;;;;;;;;;;;22.44;50.54;100632.06;10544478;28;19924;-64
2022/07/06 15:42:50;;;;;;;;;;;;;;;22.31;52.30;100654.84;10544625;28;20241;-65
2022/07/06 15:47:53;;;;;;;;;;;;;;;21.86;55.48;100654.59;10544061;28;19924;-66
2022/07/06 15:52:58;;;;;;;;;;;;;;;21.58;56.06;100665.69;10543987;28;19924;-63
2022/07/06 15:58:01;;;;;;;;;;;;;;;21.39;56.02;100667.53;10544049;28;19989;-64
2022/07/06 16:03:04;;;;;;;;;;;;;;;21.20;57.62;100658.81;10543126;28;20325;-66
2022/07/06 16:08:08;;;;;;;;;;;;;;;21.10;58.14;100662.81;10543721;28;19924;-67
2022/07/06 16:13:26;;;;;;;;;;;;;;;20.96;58.05;100659.09;10543353;28;19924;-67
2022/07/06 16:18:30;;;;;;;;;;;;;;;20.85;58.71;100667.50;10542807;28;20060;-64
2022/07/06 16:23:34;;;;;;;;;;;;;;;20.74;59.39;100671.59;10543064;28;19950;-61
2022/07/06 16:28:39;;;;;;;;;;;;;;;20.71;59.44;100658.56;10542670;28;20295;-65
2022/07/06 16:33:42;;;;;;;;;;;;;;;20.78;60.16;100660.81;10542662;28;19924;-63
2022/07/06 16:38:46;;;;;;;;;;;;;;;20.67;60.06;100653.38;10542677;28;20373;-65
2022/07/06 16:43:50;;;;;;;;;;;;;;;20.47;60.30;100655.25;10542586;28;20379;-68
2022/07/06 16:48:53;;;;;;;;;;;;;;;20.48;60.21;100659.59;10542663;28;19924;-64
2022/07/06 16:53:57;;;;;;;;;;;;;;;20.51;60.19;100646.28;10542800;28;19923;-66
2022/07/06 16:59:00;;;;;;;;;;;;;;;20.47;60.80;100656.09;10542103;28;20007;-64
2022/07/06 17:04:03;;;;;;;;;;;;;;;20.33;61.45;100655.00;10542220;28;19928;-66
2022/07/06 17:09:07;;;;;;;;;;;;;;;20.47;60.81;100645.56;10542517;28;19934;-65
2022/07/06 17:14:10;;;;;;;;;;;;;;;20.38;61.38;100659.16;10544130;28;19931;-65
2022/07/06 17:19:13;;;;;;;;;;;;;;;20.28;62.11;100660.50;10550040;28;19946;-66
2022/07/06 17:24:18;;;;;;;;;;;;;;;20.19;62.39;100655.63;10549840;28;19924;-63
2022/07/06 17:29:21;;;;;;;;;;;;;;;20.17;62.50;100662.75;10549725;28;20329;-66
2022/07/06 17:34:24;;;;;;;;;;;;;;;20.05;63.13;100657.97;10549584;28;20066;-64
2022/07/06 17:39:28;;;;;;;;;;;;;;;20.04;62.97;100658.91;10549415;28;20264;-64
2022/07/06 17:44:31;;;;;;;;;;;;;;;20.01;63.03;100666.97;10548853;28;19924;-65
2022/07/06 17:49:34;;;;;;;;;;;;;;;19.95;62.85;100664.59;10548983;28;19924;-67
2022/07/06 17:54:39;;;;;;;;;;;;;;;19.97;63.02;100672.41;10549059;28;19935;-62
2022/07/06 17:59:42;;;;;;;;;;;;;;;19.82;63.14;100676.59;10548465;28;19930;-66
2022/07/06 18:04:45;;;;;;;;;;;;;;;19.91;63.20;100675.34;10548496;28;19977;-68
2022/07/06 18:09:51;;;;;;;;;;;;;;;19.94;63.76;100675.19;10548122;28;19931;-63
2022/07/06 18:14:54;;;;;;;;;;;;;;;19.91;64.14;100681.47;10548208;28;19928;-64
2022/07/06 18:19:57;;;;;;;;;;;;;;;19.95;64.22;100682.19;10547795;28;20338;-65
2022/07/06 18:25:01;;;;;;;;;;;;;;;19.77;65.19;100678.56;10546849;28;20023;-63
2022/07/06 18:30:05;;;;;;;;;;;;;;;19.73;65.57;100673.47;10547477;28;19924;-66
2022/07/06 18:35:09;;;;;;;;;;;;;;;19.61;65.89;100677.50;10547178;28;19924;-65
2022/07/06 18:40:14;;;;;;;;;;;;;;;19.61;65.44;100677.50;10547189;28;19924;-69
2022/07/06 18:45:17;;;;;;;;;;;;;;;19.57;65.36;100681.16;10546720;28;19924;-67
2022/07/06 18:50:21;;;;;;;;;;;;;;;19.58;64.79;100679.41;10546793;28;19938;-63
2022/07/06 18:55:25;;;;;;;;;;;;;;;19.36;65.75;100682.91;10546316;28;19934;-68
2022/07/06 19:00:29;;;;;;;;;;;;;;;19.33;66.04;100685.66;10546324;28;19935;-65
2022/07/06 19:05:32;;;;;;;;;;;;;;;19.25;66.52;100695.63;10546336;28;19930;-66
2022/07/06 19:10:37;;;;;;;;;;;;;;;19.01;67.74;100695.72;10546198;28;19924;-65
2022/07/06 19:15:39;;;;;;;;;;;;;;;19.14;67.83;100696.94;10545280;28;19939;-65
2022/07/06 19:20:44;;;;;;;;;;;;;;;19.06;68.96;100701.66;10545423;28;20252;-66
2022/07/06 19:25:48;;;;;;;;;;;;;;;19.13;69.00;100705.78;10545078;28;19984;-70
2022/07/06 19:30:52;;;;;;;;;;;;;;;19.08;69.67;100718.25;10545408;28;19938;-66
2022/07/06 19:35:54;;;;;;;;;;;;;;;18.94;70.70;100720.56;10544816;28;19935;-67
2022/07/06 19:40:59;;;;;;;;;;;;;;;18.85;71.97;100729.66;10543645;28;19924;-63
2022/07/06 19:46:02;;;;;;;;;;;;;;;18.72;72.81;100725.78;10544344;28;20352;-64
2022/07/06 19:51:08;;;;;;;;;;;;;;;18.78;72.00;100732.56;10543989;28;19925;-63
2022/07/06 19:56:12;;;;;;;;;;;;;;;18.77;72.81;100728.25;10543965;28;20015;-63
2022/07/06 20:01:15;;;;;;;;;;;;;;;18.65;74.52;100728.69;10543861;28;19924;-66
2022/07/06 20:06:18;;;;;;;;;;;;;;;18.34;78.01;100729.78;10543698;28;19928;-65
2022/07/06 20:11:23;;;;;;;;;;;;;;;18.30;77.69;100725.56;10543552;28;20365;-67
2022/07/06 20:16:28;;;;;;;;;;;;;;;18.25;78.32;100730.13;10543312;28;19935;-64
2022/07/06 20:21:31;;;;;;;;;;;;;;;18.15;79.54;100728.69;10543239;28;19924;-68
2022/07/06 20:26:36;;;;;;;;;;;;;;;18.31;79.49;100736.91;10543235;28;19925;-64
2022/07/06 20:31:39;;;;;;;;;;;;;;;18.22;80.51;100730.22;10543090;28;19931;-65
2022/07/06 20:36:42;;;;;;;;;;;;;;;17.96;82.38;100730.28;10542927;28;20364;-64
2022/07/06 20:41:46;;;;;;;;;;;;;;;18.03;81.92;100725.66;10542551;28;20271;-65
2022/07/06 20:46:49;;;;;;;;;;;;;;;17.93;82.96;100733.00;10542630;28;20249;-67
2022/07/06 20:51:52;;;;;;;;;;;;;;;17.89;83.41;100728.78;10549605;28;19924;-67
2022/07/06 20:56:57;;;;;;;;;;;;;;;17.88;84.00;100724.41;10551024;28;19924;-66
2022/07/06 21:02:00;;;;;;;;;;;;;;;17.86;84.41;100723.59;10550997;28;20242;-63
2022/07/06 21:07:03;;;;;;;;;;;;;;;17.95;84.45;100735.56;10550994;28;20453;-65
2022/07/06 21:12:08;;;;;;;;;;;;;;;18.02;83.95;100727.44;10550510;28;19925;-65
2022/07/06 21:17:11;;;;;;;;;;;;;;;17.92;85.93;100727.78;10550502;28;19981;-70
2022/07/06 21:22:17;;;;;;;;;;;;;;;17.94;85.93;100731.22;10550175;28;19935;-64
2022/07/06 21:27:21;;;;;;;;;;;;;;;17.75;88.27;100738.88;10550141;28;19924;-66
2022/07/06 21:32:24;;;;;;;;;;;;;;;18.00;85.87;100736.28;10550021;28;19934;-65
2022/07/06 21:37:27;;;;;;;;;;;;;;;17.90;85.23;100737.50;10549548;28;19924;-65
2022/07/06 21:42:32;;;;;;;;;;;;;;;17.91;85.79;100737.44;10549637;28;19925;-65
2022/07/06 21:47:35;;;;;;;;;;;;;;;17.88;85.96;100745.41;10549162;28;20337;-64
2022/07/06 21:52:38;;;;;;;;;;;;;;;17.91;85.23;100744.47;10548949;28;19930;-65
2022/07/06 21:57:42;;;;;;;;;;;;;;;17.75;85.36;100749.38;10548568;28;20345;-66
2022/07/06 22:02:45;;;;;;;;;;;;;;;17.67;86.24;100755.78;10547796;28;19924;-62
2022/07/06 22:07:48;;;;;;;;;;;;;;;17.72;84.94;100756.50;10548453;28;19924;-64
2022/07/06 22:12:53;;;;;;;;;;;;;;;17.71;84.93;100750.38;10548397;28;19924;-64
2022/07/06 22:17:56;;;;;;;;;;;;;;;17.71;84.83;100754.75;10548116;28;19932;-65
2022/07/06 22:22:59;;;;;;;;;;;;;;;17.65;85.30;100758.47;10547665;28;19985;-65
2022/07/06 22:28:03;;;;;;;;;;;;;;;17.54;86.12;100759.72;10547420;28;19924;-64
2022/07/06 22:33:06;;;;;;;;;;;;;;;17.55;86.13;100770.16;10547522;28;19924;-64
2022/07/06 22:38:09;;;;;;;;;;;;;;;17.51;86.42;100771.19;10547071;28;19924;-64
2022/07/06 22:43:14;;;;;;;;;;;;;;;17.41;88.20;100772.34;10546977;28;19924;-63
2022/07/06 22:48:17;;;;;;;;;;;;;;;17.46;87.61;100770.47;10546781;28;19980;-63
2022/07/06 22:53:20;;;;;;;;;;;;;;;17.48;87.03;100770.41;10546923;28;19925;-64
2022/07/06 22:58:24;;;;;;;;;;;;;;;17.20;88.66;100776.47;10546610;28;20249;-70
2022/07/06 23:03:27;;;;;;;;;;;;;;;17.09;89.50;100769.84;10546230;28;19924;-66
2022/07/06 23:08:32;;;;;;;;;;;;;;;17.13;88.89;100764.47;10545925;28;20317;-68
2022/07/06 23:13:36;;;;;;;;;;;;;;;17.14;88.89;100762.69;10545858;28;19924;-63
2022/07/06 23:18:40;;;;;;;;;;;;;;;16.97;89.50;100775.44;10545647;28;20040;-65
2022/07/06 23:23:43;;;;;;;;;;;;;;;17.04;88.69;100776.97;10545960;28;20341;-65
2022/07/06 23:28:47;;;;;;;;;;;;;;;16.98;89.17;100771.94;10545026;28;19954;-62
2022/07/06 23:33:51;;;;;;;;;;;;;;;16.86;89.49;100770.50;10545040;28;19924;-65
2022/07/06 23:38:54;;;;;;;;;;;;;;;16.72;89.40;100769.22;10545027;28;19924;-65
2022/07/06 23:43:58;;;;;;;;;;;;;;;16.65;88.25;100773.75;10544824;28;20341;-66
2022/07/06 23:49:01;;;;;;;;;;;;;;;16.81;86.02;100767.16;10544572;28;19924;-63
2022/07/06 23:54:04;;;;;;;;;;;;;;;16.80;86.22;100769.84;10544235;28;20048;-65
2022/07/06 23:59:09;;;;;;;;;;;;;;;16.63;86.05;100767.72;10544153;28;20073;-65
